Tk Rotterdam — A8RG8 — position and weather

sailwx.info

Track history (hours):
 
Tides and Currents Weather Stations Pressure Air Temp Water Temp Dewpoint Dewpoint Depression Visibility Wind Speed Wind Dir Waves Ship Positions

Tk Rotterdam

Last reported at 2016-Aug-26 20:32 UTC. Time now 2016-Aug-31 02:14 UTC.
Position N 46°15' E 030°55'.

Length 130 m; draft 7.2 m.

Type: Cargo ship. MMSI: 636014098.

Date/timePositionNaut miles runAvg speedWind from/ knotsBaromVisibWave heightAir tempDewpointWater temp
2016-Aug-26 20:32N 46°15' E 030°55'9 9.4
2016-Aug-26 19:33N 46°24' E 030°55'9 9.0
2016-Aug-26 18:33N 46°33' E 030°58'9 8.5
2016-Aug-26 17:33N 46°35' E 031°09'12 9.1
2016-Aug-26 16:12N 46°35' E 031°27'6 7.1
2016-Aug-26 15:25N 46°35' E 031°35'7 8.5
2016-Aug-26 14:33N 46°36' E 031°46'7 7.1
2016-Aug-26 13:33N 46°34' E 031°56'  
2016-Aug-22 22:14N 46°37' E 032°36'5 7.1
2016-Aug-22 21:32N 46°35' E 032°29'8 8.4
2016-Aug-22 20:33N 46°33' E 032°18'9 9.1
2016-Aug-22 19:34N 46°32' E 032°05'10 9.6
2016-Aug-22 18:33N 46°35' E 031°51'10 9.5
2016-Aug-22 17:33N 46°35' E 031°37'9 8.8
2016-Aug-22 16:32N 46°35' E 031°24'9 9.6
2016-Aug-22 15:34N 46°35' E 031°11'9 8.9
2016-Aug-22 14:33N 46°33' E 030°58'8 7.8
2016-Aug-22 13:34N 46°25' E 030°58'5 4.9
2016-Aug-22 12:33N 46°21' E 031°02'6 5.5
2016-Aug-22 11:33N 46°16' E 031°03'9 9.1
2016-Aug-22 10:34N 46°08' E 031°09'9 9.0
2016-Aug-22 09:33N 46°01' E 031°18'9 9.2
2016-Aug-22 08:33N 45°55' E 031°27'1312.6
2016-Aug-22 07:33N 45°46' E 031°40'1312.6
2016-Aug-22 06:33N 45°36' E 031°52'1313.1
2016-Aug-22 05:33N 45°26' E 032°03'1313.2
2016-Aug-22 04:33N 45°15' E 032°15'5413.4
2016-Aug-22 00:33N 44°33' E 033°01'6813.6
2016-Aug-21 19:33N 43°55' E 034°20'1513.8
2016-Aug-21 18:29N 43°48' E 034°38'20313.6
2016-Aug-21 03:33N 42°21' E 038°48'  
Track history (hours):
 
Tides and Currents Weather Stations Pressure Air Temp Water Temp Dewpoint Dewpoint Depression Visibility Wind Speed Wind Dir Waves Ship Positions

Tk Rotterdam

Last reported at 2016-Aug-26 20:32 UTC. Time now 2016-Aug-31 02:14 UTC.
Position N 46°15' E 030°55'.

Length 130 m; draft 7.2 m.

Type: Cargo ship. MMSI: 636014098.

Date/timePositionNaut miles runAvg speedWind from/ knotsBaromVisibWave heightAir tempDewpointWater temp
2016-Aug-26 20:32N 46°15' E 030°55'9 9.4
2016-Aug-26 19:33N 46°24' E 030°55'9 9.0
2016-Aug-26 18:33N 46°33' E 030°58'9 8.5
2016-Aug-26 17:33N 46°35' E 031°09'12 9.1
2016-Aug-26 16:12N 46°35' E 031°27'6 7.1
2016-Aug-26 15:25N 46°35' E 031°35'7 8.5
2016-Aug-26 14:33N 46°36' E 031°46'7 7.1
2016-Aug-26 13:33N 46°34' E 031°56'  
2016-Aug-22 22:14N 46°37' E 032°36'5 7.1
2016-Aug-22 21:32N 46°35' E 032°29'8 8.4
2016-Aug-22 20:33N 46°33' E 032°18'9 9.1
2016-Aug-22 19:34N 46°32' E 032°05'10 9.6
2016-Aug-22 18:33N 46°35' E 031°51'10 9.5
2016-Aug-22 17:33N 46°35' E 031°37'9 8.8
2016-Aug-22 16:32N 46°35' E 031°24'9 9.6
2016-Aug-22 15:34N 46°35' E 031°11'9 8.9
2016-Aug-22 14:33N 46°33' E 030°58'8 7.8
2016-Aug-22 13:34N 46°25' E 030°58'5 4.9
2016-Aug-22 12:33N 46°21' E 031°02'6 5.5
2016-Aug-22 11:33N 46°16' E 031°03'9 9.1
2016-Aug-22 10:34N 46°08' E 031°09'9 9.0
2016-Aug-22 09:33N 46°01' E 031°18'9 9.2
2016-Aug-22 08:33N 45°55' E 031°27'1312.6
2016-Aug-22 07:33N 45°46' E 031°40'1312.6
2016-Aug-22 06:33N 45°36' E 031°52'1313.1
2016-Aug-22 05:33N 45°26' E 032°03'1313.2
2016-Aug-22 04:33N 45°15' E 032°15'5413.4
2016-Aug-22 00:33N 44°33' E 033°01'6813.6
2016-Aug-21 19:33N 43°55' E 034°20'1513.8
2016-Aug-21 18:29N 43°48' E 034°38'20313.6
2016-Aug-21 03:33N 42°21' E 038°48'  

Dump ship's entire track history